sensor_id;sensor_type;location;lat;lon;timestamp;pressure;altitude;pressure_sealevel;temperature;humidity
53699;BME280;68408;53.952;27.612;2024-03-23T00:54:44;1005.6;;;10.2;65
53699;BME280;68408;53.952;27.612;2024-03-23T01:00:04;1005.6;;;10.1;65.6
53699;BME280;68408;53.952;27.612;2024-03-23T01:04:36;1005.5;;;10.2;66
53699;BME280;68408;53.952;27.612;2024-03-23T01:10:10;1005.3;;;10.3;65.5
53699;BME280;68408;53.952;27.612;2024-03-23T01:14:36;1005.3;;;10.3;65.5
53699;BME280;68408;53.952;27.612;2024-03-23T01:20:18;1005.1;;;10.5;65
53699;BME280;68408;53.952;27.612;2024-03-23T01:24:36;1005.1;;;10.5;65
53699;BME280;68408;53.952;27.612;2024-03-23T01:30:08;1005.1;;;10.6;64.5
53699;BME280;68408;53.952;27.612;2024-03-23T01:34:54;1005.1;;;10.6;64.5
53699;BME280;68408;53.952;27.612;2024-03-23T01:40:04;1005.1;;;10.5;64.7
53699;BME280;68408;53.952;27.612;2024-03-23T01:44:56;1005.1;;;10.5;64.7
53699;BME280;68408;53.952;27.612;2024-03-23T01:50:08;1004.9;;;10.5;65.1
53699;BME280;68408;53.952;27.612;2024-03-23T01:54:36;1004.9;;;10.5;65.1
53699;BME280;68408;53.952;27.612;2024-03-23T02:00:12;1004.8;;;10.6;65
53699;BME280;68408;53.952;27.612;2024-03-23T02:05:16;1004.7;;;10.6;65
53699;BME280;68408;53.952;27.612;2024-03-23T02:10:05;1004.7;;;10.6;65
53699;BME280;68408;53.952;27.612;2024-03-23T02:15:06;1004.6;;;10.8;64.7
53699;BME280;68408;53.952;27.612;2024-03-23T02:19:36;1004.6;;;10.8;64.7
53699;BME280;68408;53.952;27.612;2024-03-23T02:24:36;1004.5;;;10.7;64.6
53699;BME280;68408;53.952;27.612;2024-03-23T02:29:52;1004.4;;;10.7;64.7
53699;BME280;68408;53.952;27.612;2024-03-23T02:34:46;1004.4;;;10.7;64.6
53699;BME280;68408;53.952;27.612;2024-03-23T02:39:44;1004.3;;;10.6;65
53699;BME280;68408;53.952;27.612;2024-03-23T02:44:54;1004.3;;;10.7;65.3
53699;BME280;68408;53.952;27.612;2024-03-23T02:49:52;1004.2;;;10.7;65
53699;BME280;68408;53.952;27.612;2024-03-23T02:54:46;1004.2;;;10.6;65.2
53699;BME280;68408;53.952;27.612;2024-03-23T02:59:56;1004.2;;;10.7;65.4
53699;BME280;68408;53.952;27.612;2024-03-23T03:05:04;1004.1;;;10.7;65.3
53699;BME280;68408;53.952;27.612;2024-03-23T03:09:56;1004.1;;;10.8;65.5
53699;BME280;68408;53.952;27.612;2024-03-23T03:15:04;1004;;;10.8;65.2
53699;BME280;68408;53.952;27.612;2024-03-23T03:20:07;1004.1;;;10.8;65.3
53699;BME280;68408;53.952;27.612;2024-03-23T03:24:54;1004.1;;;10.8;65.3
53699;BME280;68408;53.952;27.612;2024-03-23T03:29:54;1004.1;;;10.7;65.4
53699;BME280;68408;53.952;27.612;2024-03-23T03:35:04;1004;;;10.8;65.5
53699;BME280;68408;53.952;27.612;2024-03-23T03:40:16;1004;;;10.8;65.6
53699;BME280;68408;53.952;27.612;2024-03-23T03:44:54;1004;;;10.8;65.6
53699;BME280;68408;53.952;27.612;2024-03-23T03:50:06;1003.8;;;10.9;65.5
53699;BME280;68408;53.952;27.612;2024-03-23T03:54:44;1003.8;;;10.9;65.5
53699;BME280;68408;53.952;27.612;2024-03-23T03:59:44;1003.8;;;11;65.4
53699;BME280;68408;53.952;27.612;2024-03-23T04:05:16;1003.7;;;11;65.4
53699;BME280;68408;53.952;27.612;2024-03-23T04:09:46;1003.7;;;11;65.4
53699;BME280;68408;53.952;27.612;2024-03-23T04:14:36;1003.8;;;11;65.5
53699;BME280;68408;53.952;27.612;2024-03-23T04:20:16;1003.7;;;11;65.6
53699;BME280;68408;53.952;27.612;2024-03-23T04:24:46;1003.7;;;11;65.6
53699;BME280;68408;53.952;27.612;2024-03-23T04:30:14;1003.7;;;11;65.9
53699;BME280;68408;53.952;27.612;2024-03-23T04:35:14;1003.7;;;11;66.2
53699;BME280;68408;53.952;27.612;2024-03-23T04:40:08;1003.6;;;11;66.2
53699;BME280;68408;53.952;27.612;2024-03-23T04:45:16;1003.6;;;11;66.1
53699;BME280;68408;53.952;27.612;2024-03-23T04:50:16;1003.6;;;11;66.3
53699;BME280;68408;53.952;27.612;2024-03-23T04:55:06;1003.7;;;11;66.5
53699;BME280;68408;53.952;27.612;2024-03-23T04:59:54;1003.7;;;11;66.5
53699;BME280;68408;53.952;27.612;2024-03-23T05:05:08;1003.6;;;11.1;66.3
53699;BME280;68408;53.952;27.612;2024-03-23T05:10:04;1003.6;;;11.1;66.3
53699;BME280;68408;53.952;27.612;2024-03-23T05:15:16;1003.6;;;11.2;66
53699;BME280;68408;53.952;27.612;2024-03-23T05:19:44;1003.6;;;11.2;66
53699;BME280;68408;53.952;27.612;2024-03-23T05:25:06;1003.6;;;11.3;66
53699;BME280;68408;53.952;27.612;2024-03-23T05:29:36;1003.6;;;11.3;66
53699;BME280;68408;53.952;27.612;2024-03-23T05:34:36;1003.6;;;11.3;65.8
53699;BME280;68408;53.952;27.612;2024-03-23T05:39:36;1003.7;;;11.3;65.8
53699;BME280;68408;53.952;27.612;2024-03-23T05:44:36;1003.7;;;11.4;65.8
53699;BME280;68408;53.952;27.612;2024-03-23T05:49:37;1003.7;;;11.5;65.5
53699;BME280;68408;53.952;27.612;2024-03-23T05:55:00;1003.6;;;11.6;65.3
53699;BME280;68408;53.952;27.612;2024-03-23T06:00:00;1003.6;;;11.6;64.9
53699;BME280;68408;53.952;27.612;2024-03-23T06:05:16;1003.6;;;11.7;64.6
53699;BME280;68408;53.952;27.612;2024-03-23T06:10:16;1003.6;;;11.8;64.5
53699;BME280;68408;53.952;27.612;2024-03-23T06:14:36;1003.6;;;11.8;64.5
53699;BME280;68408;53.952;27.612;2024-03-23T06:20:16;1003.5;;;11.9;64
53699;BME280;68408;53.952;27.612;2024-03-23T06:25:16;1003.6;;;11.9;63.9
53699;BME280;68408;53.952;27.612;2024-03-23T06:29:38;1003.6;;;11.9;63.9
53699;BME280;68408;53.952;27.612;2024-03-23T06:34:54;1003.6;;;11.9;63.8
53699;BME280;68408;53.952;27.612;2024-03-23T06:40:04;1003.6;;;12;63.9
53699;BME280;68408;53.952;27.612;2024-03-23T06:45:04;1003.6;;;12.1;63.6
53699;BME280;68408;53.952;27.612;2024-03-23T06:50:16;1003.7;;;12.3;63
53699;BME280;68408;53.952;27.612;2024-03-23T06:54:46;1003.7;;;12.3;63
53699;BME280;68408;53.952;27.612;2024-03-23T07:00:16;1003.7;;;12.4;62.8
53699;BME280;68408;53.952;27.612;2024-03-23T07:04:36;1003.7;;;12.4;62.8
53699;BME280;68408;53.952;27.612;2024-03-23T07:09:44;1003.7;;;12.5;62.6
53699;BME280;68408;53.952;27.612;2024-03-23T07:14:36;1003.7;;;12.6;62.3
53699;BME280;68408;53.952;27.612;2024-03-23T07:19:36;1003.7;;;12.7;62.1
53699;BME280;68408;53.952;27.612;2024-03-23T07:24:36;1003.7;;;12.6;61.9
53699;BME280;68408;53.952;27.612;2024-03-23T07:29:44;1003.8;;;12.6;62.1
53699;BME280;68408;53.952;27.612;2024-03-23T07:34:38;1003.7;;;12.7;62
53699;BME280;68408;53.952;27.612;2024-03-23T07:39:36;1003.7;;;12.8;61.8
53699;BME280;68408;53.952;27.612;2024-03-23T07:45:14;1003.7;;;13;61.3
53699;BME280;68408;53.952;27.612;2024-03-23T07:49:48;1003.7;;;13;61.3
53699;BME280;68408;53.952;27.612;2024-03-23T07:55:16;1003.7;;;12.9;61.1
53699;BME280;68408;53.952;27.612;2024-03-23T07:59:44;1003.7;;;12.9;61.1
53699;BME280;68408;53.952;27.612;2024-03-23T08:04:38;1003.7;;;12.9;61.3
53699;BME280;68408;53.952;27.612;2024-03-23T08:09:36;1003.6;;;13;61.1
53699;BME280;68408;53.952;27.612;2024-03-23T08:14:56;1003.6;;;13.3;60.9
53699;BME280;68408;53.952;27.612;2024-03-23T08:20:18;1003.3;;;13.9;59.4
53699;BME280;68408;53.952;27.612;2024-03-23T08:25:08;1003.2;;;14.3;58.6
53699;BME280;68408;53.952;27.612;2024-03-23T08:29:36;1003.2;;;14.3;58.6
53699;BME280;68408;53.952;27.612;2024-03-23T08:35:10;1003.3;;;14.5;57.2
53699;BME280;68408;53.952;27.612;2024-03-23T08:40:18;1003.4;;;14.3;57.7
53699;BME280;68408;53.952;27.612;2024-03-23T08:44:38;1003.4;;;14.3;57.7
53699;BME280;68408;53.952;27.612;2024-03-23T08:49:36;1003.3;;;14.3;57.5
53699;BME280;68408;53.952;27.612;2024-03-23T08:54:44;1003.3;;;13.9;57.6
53699;BME280;68408;53.952;27.612;2024-03-23T09:00:18;1003.3;;;13.7;58.5
53699;BME280;68408;53.952;27.612;2024-03-23T09:04:44;1003.3;;;13.7;58.5
53699;BME280;68408;53.952;27.612;2024-03-23T09:09:54;1003.2;;;13.6;58.6
53699;BME280;68408;53.952;27.612;2024-03-23T09:14:36;1003.2;;;13.6;58.6
53699;BME280;68408;53.952;27.612;2024-03-23T09:20:04;1003.2;;;13.6;58.6
53699;BME280;68408;53.952;27.612;2024-03-23T09:24:38;1003.1;;;13.7;58.1
53699;BME280;68408;53.952;27.612;2024-03-23T09:30:18;1003.1;;;13.7;58.3
53699;BME280;68408;53.952;27.612;2024-03-23T09:35:18;1003.1;;;13.7;58.1
53699;BME280;68408;53.952;27.612;2024-03-23T09:40:04;1003.1;;;13.7;58.1
53699;BME280;68408;53.952;27.612;2024-03-23T09:44:36;1003.2;;;13.6;57.9
53699;BME280;68408;53.952;27.612;2024-03-23T09:50:04;1003.2;;;13.5;57.5
53699;BME280;68408;53.952;27.612;2024-03-23T09:55:08;1003.2;;;13.6;56.2
53699;BME280;68408;53.952;27.612;2024-03-23T10:00:08;1003.2;;;13.7;54.3
53699;BME280;68408;53.952;27.612;2024-03-23T10:04:54;1003.2;;;13.7;54.3
53699;BME280;68408;53.952;27.612;2024-03-23T10:10:18;1003.1;;;13.8;51.4
53699;BME280;68408;53.952;27.612;2024-03-23T10:15:19;1003;;;14.4;50.5
53699;BME280;68408;53.952;27.612;2024-03-23T10:20:06;1003;;;14.8;49.6
53699;BME280;68408;53.952;27.612;2024-03-23T10:24:48;1003;;;14.8;49.6
53699;BME280;68408;53.952;27.612;2024-03-23T10:29:48;1003;;;14.7;49.8
53699;BME280;68408;53.952;27.612;2024-03-23T10:34:37;1003.1;;;14.6;50.2
53699;BME280;68408;53.952;27.612;2024-03-23T10:39:44;1003.2;;;14.3;50.8
53699;BME280;68408;53.952;27.612;2024-03-23T10:44:36;1003.1;;;14.2;51.7
53699;BME280;68408;53.952;27.612;2024-03-23T10:50:18;1003.2;;;14.2;52.7
53699;BME280;68408;53.952;27.612;2024-03-23T10:55:10;1003.2;;;14.2;53.2
53699;BME280;68408;53.952;27.612;2024-03-23T10:59:44;1003.2;;;14.2;53.2
53699;BME280;68408;53.952;27.612;2024-03-23T11:05:34;1003.2;;;14;54.1
53699;BME280;68408;53.952;27.612;2024-03-23T11:10:24;1003.1;;;14.1;54.2
53699;BME280;68408;53.952;27.612;2024-03-23T11:15:05;1003.1;;;14.1;54.2
53699;BME280;68408;53.952;27.612;2024-03-23T11:19:52;1003.1;;;14.2;53.4
53699;BME280;68408;53.952;27.612;2024-03-23T11:25:11;1003;;;14.1;52.4
53699;BME280;68408;53.952;27.612;2024-03-23T11:30:11;1002.8;;;14.4;51.1
53699;BME280;68408;53.952;27.612;2024-03-23T11:34:46;1002.8;;;14.4;51.1
53699;BME280;68408;53.952;27.612;2024-03-23T11:39:36;1002.8;;;14.5;49.9
53699;BME280;68408;53.952;27.612;2024-03-23T11:44:38;1002.7;;;14.4;48.9
53699;BME280;68408;53.952;27.612;2024-03-23T11:50:20;1002.6;;;14.6;48.1
53699;BME280;68408;53.952;27.612;2024-03-23T11:55:03;1002.6;;;14.6;48.1
53699;BME280;68408;53.952;27.612;2024-03-23T11:59:46;1002.6;;;14.9;47.4
53699;BME280;68408;53.952;27.612;2024-03-23T12:04:36;1002.5;;;15.1;46.9
53699;BME280;68408;53.952;27.612;2024-03-23T12:10:02;1002.4;;;15.1;46.3
53699;BME280;68408;53.952;27.612;2024-03-23T12:14:36;1002.4;;;14.9;46.4
53699;BME280;68408;53.952;27.612;2024-03-23T12:19:37;1002.4;;;14.9;45.6
53699;BME280;68408;53.952;27.612;2024-03-23T12:24:48;1002.2;;;15.1;45.1
53699;BME280;68408;53.952;27.612;2024-03-23T12:30:16;1002.2;;;14.7;45.5
53699;BME280;68408;53.952;27.612;2024-03-23T12:35:04;1002.2;;;14.7;45.5
53699;BME280;68408;53.952;27.612;2024-03-23T12:40:16;1002.1;;;14.9;44
